createdAt,value
2018-08-13T00:01:07.497Z,7.60
2018-08-13T00:03:36.573Z,7.53
2018-08-13T00:06:05.833Z,6.73
2018-08-13T00:08:34.993Z,7.63
2018-08-13T00:11:04.244Z,8.13
2018-08-13T00:13:33.369Z,6.50
2018-08-13T00:16:02.585Z,9.20
2018-08-13T00:18:32.058Z,6.77
2018-08-13T00:21:01.274Z,6.70
2018-08-13T00:23:30.486Z,7.83
2018-08-13T00:25:59.509Z,7.17
2018-08-13T00:28:28.609Z,6.40
2018-08-13T00:30:57.873Z,6.77
2018-08-13T00:33:27.100Z,8.03
2018-08-13T00:35:56.269Z,7.07
2018-08-13T00:38:25.497Z,8.53
2018-08-13T00:40:54.470Z,7.60
2018-08-13T00:43:23.704Z,8.07
2018-08-13T00:45:52.860Z,8.90
2018-08-13T00:48:22.049Z,8.10
2018-08-13T00:50:51.181Z,7.97
2018-08-13T00:53:20.377Z,8.43
2018-08-13T00:55:49.549Z,8.90
2018-08-13T00:58:18.653Z,8.83
2018-08-13T01:00:47.834Z,8.20
2018-08-13T01:03:17.094Z,8.53
2018-08-13T01:05:46.284Z,8.40
2018-08-13T01:08:15.450Z,7.20
2018-08-13T01:10:44.632Z,8.97
2018-08-13T01:13:13.833Z,9.03
2018-08-13T01:15:43.082Z,9.13
2018-08-13T01:18:12.259Z,9.57
2018-08-13T01:20:41.420Z,8.57
2018-08-13T01:23:10.658Z,8.33
2018-08-13T01:25:40.074Z,8.57
2018-08-13T01:28:09.164Z,7.63
2018-08-13T01:30:38.327Z,8.53
2018-08-13T01:33:07.696Z,8.03
2018-08-13T01:35:36.825Z,8.43
2018-08-13T01:38:06.018Z,6.80
2018-08-13T01:40:35.245Z,6.77
2018-08-13T01:43:04.262Z,6.97
2018-08-13T01:45:33.247Z,7.27
2018-08-13T01:48:02.921Z,7.83
2018-08-13T01:50:32.147Z,8.40
2018-08-13T01:53:01.358Z,7.17
2018-08-13T01:55:30.538Z,7.23
2018-08-13T01:58:00.241Z,8.20
2018-08-13T02:00:29.319Z,8.10
2018-08-13T02:02:58.513Z,8.10
2018-08-13T02:05:28.211Z,7.13
2018-08-13T02:07:57.700Z,7.43
2018-08-13T02:10:26.719Z,8.17
2018-08-13T02:12:55.928Z,7.90
2018-08-13T02:15:25.121Z,8.73
2018-08-13T02:17:54.344Z,7.73
2018-08-13T02:20:23.415Z,8.23
2018-08-13T02:22:52.717Z,9.70
2018-08-13T02:25:22.009Z,8.27
2018-08-13T02:27:51.317Z,8.90
2018-08-13T02:30:20.553Z,8.10
2018-08-13T02:32:49.728Z,9.13
2018-08-13T02:35:18.910Z,9.00
2018-08-13T02:37:48.109Z,8.50
2018-08-13T02:40:17.304Z,8.50
2018-08-13T02:42:46.530Z,8.20
2018-08-13T02:45:15.797Z,7.23
2018-08-13T02:47:45.133Z,8.07
2018-08-13T02:50:14.793Z,8.20
2018-08-13T02:52:43.911Z,8.43
2018-08-13T02:55:13.304Z,8.00
2018-08-13T02:57:42.414Z,8.87
2018-08-13T03:00:12.073Z,8.60
2018-08-13T03:02:41.509Z,8.80
2018-08-13T03:05:12.317Z,8.13
2018-08-13T03:07:41.513Z,9.47
2018-08-13T03:10:12.469Z,9.53
2018-08-13T03:12:41.869Z,9.67
2018-08-13T03:15:13.040Z,8.00
2018-08-13T03:17:42.293Z,8.70
2018-08-13T03:20:11.445Z,8.30
2018-08-13T03:22:40.642Z,8.40
2018-08-13T03:25:10.626Z,8.80
2018-08-13T03:27:39.801Z,8.40
2018-08-13T03:30:11.732Z,8.60
2018-08-13T03:32:41.441Z,8.27
2018-08-13T03:35:10.461Z,9.33
2018-08-13T03:37:39.661Z,7.77
2018-08-13T03:40:10.450Z,8.60
2018-08-13T03:42:39.492Z,7.43
2018-08-13T03:45:09.968Z,7.70
2018-08-13T03:47:39.073Z,8.20
2018-08-13T03:50:09.373Z,7.30
2018-08-13T03:52:38.488Z,8.00
2018-08-13T03:55:08.984Z,8.30
2018-08-13T03:57:38.073Z,7.27
2018-08-13T04:00:10.721Z,6.13
2018-08-13T04:02:39.888Z,6.00
2018-08-13T04:05:09.600Z,5.47
2018-08-13T04:07:39.349Z,5.47
2018-08-13T04:10:10.653Z,3.73
2018-08-13T04:12:41.234Z,6.43
2018-08-13T04:15:11.727Z,3.87
2018-08-13T04:17:41.325Z,3.40
2018-08-13T04:20:11.654Z,4.40
2018-08-13T04:22:40.702Z,4.33
2018-08-13T04:25:10.639Z,3.50
2018-08-13T04:27:40.614Z,3.20
2018-08-13T04:30:11.870Z,3.53
2018-08-13T04:32:41.030Z,3.77
2018-08-13T04:35:10.294Z,4.13
2018-08-13T04:37:39.717Z,3.20
2018-08-13T04:40:10.741Z,3.50
2018-08-13T04:42:40.075Z,3.93
2018-08-13T04:45:09.729Z,4.70
2018-08-13T04:47:38.673Z,4.07
2018-08-13T04:50:08.797Z,3.30
2018-08-13T04:52:38.247Z,4.03
2018-08-13T04:55:08.657Z,3.23
2018-08-13T04:57:37.917Z,4.13
2018-08-13T05:00:07.760Z,3.83
2018-08-13T05:02:36.940Z,5.00
2018-08-13T05:05:06.824Z,3.70
2018-08-13T05:07:35.937Z,6.33
2018-08-13T05:10:05.622Z,4.17
2018-08-13T05:12:34.644Z,3.53
2018-08-13T05:15:04.025Z,4.40
2018-08-13T05:17:33.045Z,3.60
2018-08-13T05:20:02.280Z,3.90
2018-08-13T05:22:31.441Z,3.20
2018-08-13T05:25:00.637Z,3.37
2018-08-13T05:27:30.117Z,4.30
2018-08-13T05:29:59.436Z,4.03
2018-08-13T05:32:28.574Z,3.80
2018-08-13T05:34:57.741Z,3.60
2018-08-13T05:37:26.933Z,3.97
2018-08-13T05:39:56.136Z,3.20
2018-08-13T05:42:25.337Z,3.50
2018-08-13T05:44:54.855Z,2.80
2018-08-13T05:47:24.032Z,4.30
2018-08-13T05:49:53.235Z,3.77
2018-08-13T05:52:22.441Z,3.03
2018-08-13T05:54:51.628Z,4.10
2018-08-13T05:57:20.977Z,4.90
2018-08-13T05:59:50.134Z,4.73
2018-08-13T06:02:19.364Z,4.70
2018-08-13T06:04:48.529Z,4.43
2018-08-13T06:07:17.830Z,4.90
2018-08-13T06:09:47.074Z,6.70
2018-08-13T06:12:16.113Z,4.83
2018-08-13T06:14:45.420Z,7.13
2018-08-13T06:17:14.623Z,6.57
2018-08-13T06:19:43.824Z,5.30
2018-08-13T06:22:13.150Z,5.23
2018-08-13T06:24:42.605Z,3.17
2018-08-13T06:27:11.713Z,8.60
2018-08-13T06:29:40.918Z,4.17
2018-08-13T06:32:10.109Z,4.20
2018-08-13T06:34:39.597Z,2.27
2018-08-13T06:37:08.824Z,2.07
2018-08-13T06:39:38.046Z,2.10
2018-08-13T06:42:07.299Z,2.77
2018-08-13T06:44:36.526Z,2.80
2018-08-13T06:47:05.825Z,2.70
2018-08-13T06:49:35.023Z,2.33
2018-08-13T06:52:04.757Z,2.97
2018-08-13T06:54:34.022Z,3.43
2018-08-13T06:57:03.454Z,3.10
2018-08-13T06:59:32.517Z,2.70
2018-08-13T07:02:01.562Z,4.47
2018-08-13T07:04:30.753Z,4.33
2018-08-13T07:06:59.923Z,6.33
2018-08-13T07:09:29.134Z,6.37
2018-08-13T07:11:58.257Z,4.83
2018-08-13T07:14:27.409Z,8.48
2018-08-13T07:16:56.678Z,8.73
2018-08-13T07:19:25.805Z,6.55
2018-08-13T07:21:54.997Z,8.65
2018-08-13T07:24:24.486Z,7.05
2018-08-13T07:26:53.523Z,5.35
2018-08-13T07:29:22.742Z,4.00
2018-08-13T07:31:51.937Z,4.85
2018-08-13T07:34:20.913Z,6.58
2018-08-13T07:36:50.257Z,4.58
2018-08-13T07:39:19.547Z,7.55
2018-08-13T07:41:48.737Z,6.30
2018-08-13T07:44:17.894Z,5.15
2018-08-13T07:46:47.114Z,4.10
2018-08-13T07:49:16.279Z,4.28
2018-08-13T07:51:45.524Z,6.15
2018-08-13T07:54:14.700Z,6.33
2018-08-13T07:56:43.772Z,7.20
2018-08-13T07:59:13.141Z,4.60
2018-08-13T08:01:42.329Z,4.30
2018-08-13T08:04:11.472Z,4.33
2018-08-13T08:06:40.956Z,4.50
2018-08-13T08:09:12.200Z,3.10
2018-08-13T08:11:41.674Z,4.62
2018-08-13T08:14:10.937Z,4.60
2018-08-13T08:16:40.366Z,4.53
2018-08-13T08:19:09.429Z,2.90
2018-08-13T08:21:38.629Z,2.33
2018-08-13T08:24:07.744Z,2.95
2018-08-13T08:26:36.945Z,3.02
2018-08-13T08:29:07.125Z,3.02
2018-08-13T08:31:36.140Z,2.92
2018-08-13T08:34:05.340Z,2.50
2018-08-13T08:36:34.538Z,2.70
2018-08-13T08:39:03.969Z,1.98
2018-08-13T08:41:33.045Z,3.58
2018-08-13T08:44:02.080Z,2.65
2018-08-13T08:46:31.220Z,2.95
2018-08-13T08:49:00.705Z,2.80
2018-08-13T08:51:29.713Z,2.67
2018-08-13T08:53:58.941Z,3.08
2018-08-13T08:56:28.121Z,3.20
2018-08-13T08:58:57.354Z,4.53
2018-08-13T09:01:26.531Z,3.17
2018-08-13T09:03:55.718Z,3.00
2018-08-13T09:06:25.118Z,4.87
2018-08-13T09:08:54.225Z,3.17
2018-08-13T09:11:23.424Z,3.40
2018-08-13T09:13:52.626Z,3.58
2018-08-13T09:16:21.814Z,2.87
2018-08-13T09:19:01.746Z,3.22
2018-08-13T09:21:33.409Z,2.85
2018-08-13T09:24:14.066Z,2.75
2018-08-13T09:26:54.004Z,3.47
2018-08-13T09:29:33.920Z,3.50
2018-08-13T09:32:29.873Z,3.50
2018-08-13T09:35:31.959Z,2.75
2018-08-13T09:38:01.258Z,3.55
2018-08-13T09:40:31.643Z,4.12
2018-08-13T09:43:00.596Z,3.55
2018-08-13T09:45:29.589Z,3.67
2018-08-13T09:47:58.875Z,4.17
2018-08-13T09:50:27.911Z,2.60
2018-08-13T09:52:57.222Z,3.45
2018-08-13T09:55:26.083Z,3.37
2018-08-13T09:57:55.288Z,2.30
2018-08-13T10:01:32.688Z,3.85
2018-08-13T10:04:01.765Z,2.90
2018-08-13T10:06:30.798Z,3.15
2018-08-13T10:09:00.020Z,2.42
2018-08-13T10:11:29.175Z,3.37
2018-08-13T10:13:58.497Z,3.17
2018-08-13T10:16:27.768Z,3.17
2018-08-13T10:18:57.037Z,3.83
2018-08-13T10:21:26.086Z,4.33
2018-08-13T10:23:55.255Z,3.08
2018-08-13T10:26:24.572Z,2.92
2018-08-13T10:28:53.749Z,2.83
2018-08-13T10:31:23.002Z,4.05
2018-08-13T10:33:52.154Z,2.35
2018-08-13T10:36:21.342Z,2.60
2018-08-13T10:38:50.373Z,3.25
2018-08-13T10:41:19.606Z,3.65
2018-08-13T10:43:48.734Z,3.20
2018-08-13T10:46:18.015Z,2.70
2018-08-13T10:48:47.133Z,3.08
2018-08-13T10:51:16.321Z,3.40
2018-08-13T10:53:46.463Z,2.95
2018-08-13T10:56:15.689Z,3.92
2018-08-13T10:58:44.853Z,2.47
2018-08-13T11:01:14.333Z,3.45
2018-08-13T11:03:43.679Z,2.65
2018-08-13T11:06:13.061Z,3.33
2018-08-13T11:08:42.269Z,2.62
2018-08-13T11:11:11.645Z,2.60
2018-08-13T11:13:40.751Z,3.30
2018-08-13T11:16:09.980Z,3.17
2018-08-13T11:18:39.137Z,3.00
2018-08-13T11:21:08.344Z,2.42
2018-08-13T11:23:37.421Z,2.27
2018-08-13T11:26:06.536Z,2.60
2018-08-13T11:28:35.629Z,2.35
2018-08-13T11:31:04.933Z,2.30
2018-08-13T11:33:34.232Z,2.77
2018-08-13T11:36:03.498Z,3.58
2018-08-13T11:38:32.625Z,3.12
2018-08-13T11:41:01.887Z,2.70
2018-08-13T11:43:31.023Z,1.70
2018-08-13T11:46:00.342Z,2.17
2018-08-13T11:48:29.539Z,2.60
2018-08-13T11:50:58.726Z,1.80
2018-08-13T11:53:27.989Z,2.55
2018-08-13T11:55:57.121Z,2.87
2018-08-13T11:58:26.310Z,2.15
2018-08-13T12:00:55.573Z,2.22
2018-08-13T12:03:24.717Z,2.95
2018-08-13T12:05:53.977Z,2.55
2018-08-13T12:08:23.240Z,2.20
2018-08-13T12:10:52.410Z,1.98
2018-08-13T12:13:21.515Z,2.05
2018-08-13T12:15:50.709Z,2.10
2018-08-13T12:18:20.045Z,2.30
2018-08-13T12:20:49.215Z,2.65
2018-08-13T12:23:18.406Z,2.37
2018-08-13T12:25:47.603Z,2.52
2018-08-13T12:28:16.806Z,2.67
2018-08-13T12:30:46.125Z,1.60
2018-08-13T12:33:15.308Z,2.05
2018-08-13T12:35:44.503Z,2.25
2018-08-13T12:38:13.709Z,2.70
2018-08-13T12:40:42.881Z,2.58
2018-08-13T12:43:12.293Z,2.00
2018-08-13T12:45:41.405Z,2.85
2018-08-13T12:48:10.604Z,2.10
2018-08-13T12:50:39.682Z,2.37
2018-08-13T12:53:09.011Z,3.17
2018-08-13T12:55:38.215Z,3.02
2018-08-13T12:58:07.535Z,2.55
2018-08-13T13:00:36.906Z,2.40
2018-08-13T13:03:06.210Z,2.92
2018-08-13T13:05:35.317Z,2.20
2018-08-13T13:08:04.785Z,2.35
2018-08-13T13:10:34.089Z,4.17
2018-08-13T13:13:03.305Z,2.30
2018-08-13T13:15:32.495Z,2.90
2018-08-13T13:18:01.714Z,2.70
2018-08-13T13:20:30.688Z,2.90
2018-08-13T13:22:59.873Z,3.20
2018-08-13T13:25:29.105Z,3.77
2018-08-13T13:27:58.269Z,2.30
2018-08-13T13:30:27.267Z,3.07
2018-08-13T13:32:56.505Z,3.33
2018-08-13T13:35:25.694Z,3.50
2018-08-13T13:37:54.904Z,2.40
2018-08-13T13:40:24.226Z,3.23
2018-08-13T13:42:53.572Z,2.70
2018-08-13T13:45:22.892Z,2.17
2018-08-13T13:47:52.167Z,2.57
2018-08-13T13:50:21.370Z,2.90
2018-08-13T13:52:50.560Z,3.70
2018-08-13T13:55:19.781Z,2.30
2018-08-13T13:57:48.950Z,2.43
2018-08-13T14:00:20.646Z,2.97
2018-08-13T14:02:50.727Z,4.53
2018-08-13T14:05:19.933Z,4.87
2018-08-13T14:07:49.189Z,4.60
2018-08-13T14:10:21.341Z,3.40
2018-08-13T14:12:50.882Z,3.80
2018-08-13T14:15:21.137Z,2.60
2018-08-13T14:17:50.474Z,2.47
2018-08-13T14:20:19.689Z,2.50
2018-08-13T14:22:48.921Z,2.77
2018-08-13T14:25:18.121Z,2.90
2018-08-13T14:27:47.317Z,2.70
2018-08-13T14:30:19.489Z,2.50
2018-08-13T14:32:48.996Z,3.90
2018-08-13T14:35:19.022Z,5.90
2018-08-13T14:37:48.233Z,2.37
2018-08-13T14:40:17.404Z,2.80
2018-08-13T14:42:52.068Z,2.57
2018-08-13T14:45:20.802Z,2.87
2018-08-13T14:47:50.899Z,4.57
2018-08-13T14:50:19.691Z,2.70
2018-08-13T14:52:49.077Z,4.00
2018-08-13T14:55:20.154Z,1.90
2018-08-13T14:57:48.829Z,2.43
2018-08-13T15:00:21.465Z,2.57
2018-08-13T15:02:50.681Z,2.47
2018-08-13T15:05:19.947Z,2.67
2018-08-13T15:07:49.397Z,2.43
2018-08-13T15:10:19.981Z,2.77
2018-08-13T15:12:49.226Z,2.80
2018-08-13T15:15:23.169Z,3.67
2018-08-13T15:17:57.480Z,8.10
2018-08-13T15:20:32.822Z,2.73
2018-08-13T15:23:07.669Z,4.73
2018-08-13T15:25:41.527Z,3.10
2018-08-13T15:28:16.695Z,2.87
2018-08-13T15:30:50.293Z,2.50
2018-08-13T15:33:23.603Z,4.07
2018-08-13T15:35:52.910Z,4.00
2018-08-13T15:38:24.251Z,4.17
2018-08-13T15:40:57.126Z,2.83
2018-08-13T15:43:29.765Z,3.40
2018-08-13T15:46:02.232Z,2.57
2018-08-13T15:48:34.538Z,10.33
2018-08-13T15:51:06.928Z,5.63
2018-08-13T15:53:39.983Z,6.03
2018-08-13T15:56:11.802Z,2.67
2018-08-13T15:58:44.801Z,10.67
2018-08-13T16:01:13.881Z,3.33
2018-08-13T16:03:43.085Z,4.37
2018-08-13T16:06:12.279Z,4.57
2018-08-13T16:08:41.518Z,7.80
2018-08-13T16:11:10.814Z,5.90
2018-08-13T16:13:40.082Z,4.83
2018-08-13T16:16:09.329Z,3.67
2018-08-13T16:18:38.376Z,6.43
2018-08-13T16:21:07.366Z,3.30
2018-08-13T16:23:36.602Z,6.37
2018-08-13T16:26:05.766Z,4.20
2018-08-13T16:28:34.829Z,3.87
2018-08-13T16:31:04.169Z,4.57
2018-08-13T16:33:33.453Z,3.00
2018-08-13T16:36:02.691Z,3.50
2018-08-13T16:38:31.858Z,4.20
2018-08-13T16:41:01.338Z,4.30
2018-08-13T16:43:30.352Z,4.93
2018-08-13T16:45:59.558Z,3.33
2018-08-13T16:48:28.805Z,3.40
2018-08-13T16:50:57.946Z,4.70
2018-08-13T16:53:27.259Z,5.70
2018-08-13T16:55:56.578Z,4.67
2018-08-13T16:58:26.028Z,5.03
2018-08-13T17:00:55.111Z,4.00
2018-08-13T17:03:24.239Z,4.20
2018-08-13T17:05:53.592Z,3.93
2018-08-13T17:08:23.019Z,5.03
2018-08-13T17:10:52.194Z,3.47
2018-08-13T17:13:21.576Z,4.40
2018-08-13T17:15:50.758Z,4.87
2018-08-13T17:18:19.985Z,3.97
2018-08-13T17:20:49.200Z,4.40
2018-08-13T17:23:18.389Z,3.70
2018-08-13T17:25:47.603Z,4.20
2018-08-13T17:28:16.772Z,4.10
2018-08-13T17:30:45.985Z,4.00
2018-08-13T17:33:15.137Z,4.57
2018-08-13T17:35:44.383Z,4.60
2018-08-13T17:38:13.613Z,3.97
2018-08-13T17:40:42.873Z,3.80
2018-08-13T17:43:12.483Z,4.80
2018-08-13T17:45:41.568Z,3.43
2018-08-13T17:48:11.152Z,6.60
2018-08-13T17:50:40.413Z,4.47
2018-08-13T17:53:10.053Z,4.93
2018-08-13T17:55:39.270Z,3.87
2018-08-13T17:58:08.668Z,5.23
2018-08-13T18:00:37.879Z,7.63
2018-08-13T18:03:07.337Z,8.10
2018-08-13T18:05:36.594Z,7.17
2018-08-13T18:08:05.829Z,5.43
2018-08-13T18:10:35.506Z,5.90
2018-08-13T18:13:06.097Z,4.60
2018-08-13T18:15:35.593Z,7.70
2018-08-13T18:18:05.031Z,6.87
2018-08-13T18:20:34.250Z,6.33
2018-08-13T18:23:03.437Z,4.60
2018-08-13T18:25:32.597Z,4.20
2018-08-13T18:28:01.829Z,5.20
2018-08-13T18:30:30.918Z,4.70
2018-08-13T18:33:00.111Z,7.10
2018-08-13T18:35:29.358Z,4.93
2018-08-13T18:37:58.711Z,5.50
2018-08-13T18:40:32.943Z,5.37
2018-08-13T18:43:02.268Z,5.50
2018-08-13T18:45:31.405Z,5.93
2018-08-13T18:48:01.155Z,7.60
2018-08-13T18:50:30.228Z,4.83
2018-08-13T18:52:59.470Z,3.80
2018-08-13T18:55:28.480Z,6.70
2018-08-13T18:57:57.320Z,4.30
2018-08-13T19:00:28.569Z,5.93
2018-08-13T19:02:58.410Z,6.27
2018-08-13T19:05:27.436Z,12.30
2018-08-13T19:07:56.298Z,7.47
2018-08-13T19:10:25.087Z,4.73
2018-08-13T19:12:54.025Z,4.50
2018-08-13T19:15:24.760Z,6.13
2018-08-13T19:17:54.038Z,4.97
2018-08-13T19:20:23.043Z,5.23
2018-08-13T19:22:51.909Z,4.67
2018-08-13T19:25:23.166Z,5.33
2018-08-13T19:27:51.897Z,5.30
2018-08-13T19:30:21.682Z,5.77
2018-08-13T19:32:50.952Z,4.90
2018-08-13T19:35:19.722Z,5.27
2018-08-13T19:37:48.877Z,5.40
2018-08-13T19:40:19.896Z,5.23
2018-08-13T19:42:49.546Z,4.70
2018-08-13T19:45:19.206Z,4.73
2018-08-13T19:47:48.463Z,5.27
2018-08-13T19:50:17.449Z,6.13
2018-08-13T19:52:47.309Z,3.97
2018-08-13T19:55:16.489Z,5.50
2018-08-13T19:57:45.214Z,4.63
2018-08-13T20:00:21.002Z,4.90
2018-08-13T20:02:50.310Z,4.93
2018-08-13T20:05:20.405Z,4.20
2018-08-13T20:07:49.433Z,4.30
2018-08-13T20:10:18.218Z,4.60
2018-08-13T20:12:47.377Z,5.27
2018-08-13T20:15:16.140Z,5.10
2018-08-13T20:17:45.159Z,6.00
2018-08-13T20:20:16.171Z,6.00
2018-08-13T20:22:45.806Z,5.80
2018-08-13T20:25:16.698Z,5.30
2018-08-13T20:27:45.935Z,5.17
2018-08-13T20:30:18.504Z,8.20
2018-08-13T20:32:49.224Z,4.83
2018-08-13T20:35:18.722Z,5.30
2018-08-13T20:37:47.555Z,4.63
2018-08-13T20:40:17.965Z,4.50
2018-08-13T20:42:47.383Z,4.60
2018-08-13T20:45:17.916Z,5.17
2018-08-13T20:47:47.185Z,6.27
2018-08-13T20:50:19.178Z,5.37
2018-08-13T20:52:48.832Z,4.80
2018-08-13T20:55:20.267Z,4.70
2018-08-13T20:57:49.493Z,7.00
2018-08-13T21:00:20.885Z,5.27
2018-08-13T21:02:49.597Z,4.33
2018-08-13T21:05:18.623Z,5.80
2018-08-13T21:07:48.400Z,6.10
2018-08-13T21:10:18.387Z,5.33
2018-08-13T21:12:47.129Z,4.43
2018-08-13T21:15:16.746Z,4.70
2018-08-13T21:17:45.613Z,5.40
2018-08-13T21:20:21.560Z,4.93
2018-08-13T21:22:50.364Z,5.03
2018-08-13T21:25:19.120Z,5.13
2018-08-13T21:27:48.001Z,5.60
2018-08-13T21:30:16.772Z,4.33
2018-08-13T21:32:45.788Z,4.70
2018-08-13T21:35:23.165Z,5.33
2018-08-13T21:37:52.066Z,5.73
2018-08-13T21:40:20.891Z,5.90
2018-08-13T21:42:50.357Z,5.17
2018-08-13T21:45:19.150Z,4.87
2018-08-13T21:47:47.916Z,5.97
2018-08-13T21:50:18.955Z,4.80
2018-08-13T21:52:48.571Z,5.53
2018-08-13T21:55:17.346Z,5.50
2018-08-13T21:57:46.095Z,5.53
2018-08-13T22:00:24.778Z,5.80
2018-08-13T22:02:53.865Z,4.93
2018-08-13T22:05:22.641Z,5.67
2018-08-13T22:07:51.405Z,6.23
2018-08-13T22:10:20.091Z,5.77
2018-08-13T22:12:48.877Z,5.33
2018-08-13T22:15:25.808Z,5.93
2018-08-13T22:17:55.720Z,4.83
2018-08-13T22:20:25.148Z,5.30
2018-08-13T22:22:54.080Z,7.00
2018-08-13T22:25:29.645Z,7.57
2018-08-13T22:27:58.777Z,7.13
2018-08-13T22:30:27.911Z,5.63
2018-08-13T22:32:56.633Z,6.77
2018-08-13T22:35:25.341Z,6.30
2018-08-13T22:37:54.185Z,7.33
2018-08-13T22:40:22.904Z,7.07
2018-08-13T22:42:51.646Z,7.17
2018-08-13T22:45:21.829Z,6.80
2018-08-13T22:47:50.607Z,8.13
2018-08-13T22:50:19.351Z,7.73
2018-08-13T22:52:48.095Z,6.20
2018-08-13T22:55:18.185Z,7.10
2018-08-13T22:57:47.063Z,6.70
2018-08-13T23:00:16.953Z,5.90
2018-08-13T23:02:46.616Z,6.30
2018-08-13T23:05:19.532Z,6.00
2018-08-13T23:07:48.317Z,5.60
2018-08-13T23:10:18.393Z,6.80
2018-08-13T23:12:48.309Z,5.87
2018-08-13T23:15:17.613Z,5.47
2018-08-13T23:17:46.926Z,6.47
2018-08-13T23:20:23.987Z,5.70
2018-08-13T23:23:06.826Z,5.57
2018-08-13T23:25:36.710Z,5.70
2018-08-13T23:28:07.733Z,5.90
2018-08-13T23:30:36.495Z,6.20
2018-08-13T23:33:05.709Z,5.87
2018-08-13T23:35:34.404Z,6.60
2018-08-13T23:38:03.128Z,6.53
2018-08-13T23:40:31.823Z,6.10
2018-08-13T23:43:00.588Z,5.77
2018-08-13T23:45:31.105Z,5.80
2018-08-13T23:48:00.430Z,5.20
2018-08-13T23:50:29.313Z,5.67
2018-08-13T23:53:00.275Z,6.27
2018-08-13T23:55:32.878Z,5.73
2018-08-13T23:58:01.996Z,6.60
